Aérodrome :
LOGIN :

S'inscrire | Disclaimer

   EN    FR    IT 

 










Légende :    VFR   VFR Marginal   IFR   IFR Intensif   IFR Très Intensif
Visi : 
Plafond : 
>= 8 km
>= 3000ft
5 à 8 km
1000 à 3000 ft
1500m à 5 km
500 à 1000 ft
800 à 1500m
200 à 500 ft
< 800m
< 200 ft
Symboles :   Orages  Brouillard  Fortes neiges  Fortes précipitations  Vent > 20 kt
SIGMETs :   Divers  Orages  Givrage  Turbulence  Onde Orograph.  Cendres Volcan.







- Altitude de l'aérodrome : 82 ft
- Code IATA : ALG


DAAG - Alger Houari Boumedienne

DERNIER METAR :
  • 232100Z 15002KT CAVOK 16/14 Q1016

METARs EXPIRÉS :
  • 232030Z 00000KT CAVOK 18/14 Q1016
  • 232000Z 07004KT CAVOK 18/14 Q1016
  • 231930Z 05003KT 300V080 CAVOK 20/14 Q1016
  • 231900Z 06005KT CAVOK 21/14 Q1016
  • 231830Z 05005KT 020V080 CAVOK 23/14 Q1016

TAF TAF DAAG
Valide du 23 à 18h jusqu'au 24 à 18h UTC


231700Z 2318/2418 06010KT 9999 FEW026
BECMG 2319/2322 VRB02KT
BECMG 2409/2412 02010KT
Pas de NOTAMs connus pour ce terrain.
1 SIGMET publié pour la FIR Alger (DAAA) :
 
Orages noyés dans la masse
DAAA SIGMET 4 VALID 231930/232230 DAMM
DAAA ALGER FIR EMBD TS FCST WI N3329 W00136 - N3357 E00611 - N3316 E00539 - N3200 E00015 - N2919 W00727 - N3329 W00136 - TOP FL380 STNR NC=



MET'MAP, la Météo Aéronautique d'un coup d'oeil ! - Copyright ORBIFLY Décembre 2007 - Disclaimer

ORBIFLY MET'MAP TEAM :

Programmation & Développement : Alexandra Zaïnal
Conception & Développement : Baudouin d'Aumeries
Co-Programmation & Développement : Marc-Olivier Méhu
Soutien technique & logistique : Manuel Goepfert

Contact : metmap@orbifly.com




SOURCES & CREDITS :

   NOAA